createdAt,value
2018-09-13T00:00:09.878Z,21.60
2018-09-13T00:02:38.166Z,22.70
2018-09-13T00:05:06.480Z,25.43
2018-09-13T00:07:34.764Z,28.10
2018-09-13T00:10:03.016Z,24.20
2018-09-13T00:12:31.323Z,25.40
2018-09-13T00:14:59.635Z,24.80
2018-09-13T00:17:27.891Z,21.63
2018-09-13T00:19:56.125Z,30.77
2018-09-13T00:22:24.393Z,20.63
2018-09-13T00:24:52.658Z,25.30
2018-09-13T00:27:20.921Z,23.77
2018-09-13T00:29:49.224Z,31.47
2018-09-13T00:32:17.532Z,27.30
2018-09-13T00:34:45.858Z,27.83
2018-09-13T00:37:14.151Z,24.23
2018-09-13T00:39:42.433Z,27.63
2018-09-13T00:42:10.683Z,20.60
2018-09-13T00:44:38.999Z,27.50
2018-09-13T00:47:11.627Z,24.13
2018-09-13T00:49:40.355Z,32.10
2018-09-13T00:52:08.683Z,22.47
2018-09-13T00:54:36.944Z,25.10
2018-09-13T00:57:05.235Z,26.90
2018-09-13T00:59:33.523Z,31.13
2018-09-13T01:02:01.830Z,21.77
2018-09-13T01:04:30.088Z,23.17
2018-09-13T01:06:58.382Z,21.40
2018-09-13T01:09:26.680Z,24.20
2018-09-13T01:11:54.981Z,24.47
2018-09-13T01:14:23.276Z,23.17
2018-09-13T01:16:51.540Z,20.17
2018-09-13T01:19:19.787Z,19.27
2018-09-13T01:21:48.123Z,21.53
2018-09-13T01:24:16.438Z,21.07
2018-09-13T01:26:44.684Z,29.40
2018-09-13T01:29:12.946Z,26.47
2018-09-13T01:31:41.223Z,30.40
2018-09-13T01:34:09.489Z,28.47
2018-09-13T01:36:37.767Z,26.90
2018-09-13T01:39:07.812Z,32.20
2018-09-13T01:41:36.193Z,26.90
2018-09-13T01:44:04.466Z,24.37
2018-09-13T01:46:32.727Z,24.50
2018-09-13T01:49:01.016Z,28.40
2018-09-13T01:51:29.294Z,29.00
2018-09-13T01:53:57.568Z,26.93
2018-09-13T01:56:25.840Z,32.53
2018-09-13T01:58:54.099Z,27.53
2018-09-13T02:01:22.361Z,26.30
2018-09-13T02:03:50.674Z,30.57
2018-09-13T02:06:18.930Z,33.77
2018-09-13T02:08:47.227Z,25.97
2018-09-13T02:11:15.527Z,23.50
2018-09-13T02:13:43.786Z,25.20
2018-09-13T02:16:12.054Z,27.57
2018-09-13T02:18:40.331Z,25.27
2018-09-13T02:21:08.623Z,23.03
2018-09-13T02:23:36.901Z,30.73
2018-09-13T02:26:05.186Z,24.97
2018-09-13T02:28:33.459Z,25.33
2018-09-13T02:31:01.739Z,26.60
2018-09-13T02:33:29.996Z,21.13
2018-09-13T02:35:58.267Z,28.80
2018-09-13T02:38:26.525Z,28.90
2018-09-13T02:40:54.815Z,24.77
2018-09-13T02:43:23.081Z,25.60
2018-09-13T02:45:51.331Z,23.90
2018-09-13T02:48:19.604Z,29.10
2018-09-13T02:50:47.851Z,28.50
2018-09-13T02:53:16.105Z,33.63
2018-09-13T02:55:44.403Z,29.97
2018-09-13T02:58:12.656Z,38.13
2018-09-13T03:00:40.968Z,29.10
2018-09-13T03:03:09.222Z,26.67
2018-09-13T03:05:37.492Z,31.67
2018-09-13T03:08:05.763Z,36.30
2018-09-13T03:10:34.010Z,29.43
2018-09-13T03:13:02.328Z,31.57
2018-09-13T03:15:30.619Z,28.63
2018-09-13T03:17:58.875Z,30.97
2018-09-13T03:20:27.204Z,31.47
2018-09-13T03:22:55.471Z,32.63
2018-09-13T03:25:23.719Z,42.87
2018-09-13T03:27:52.143Z,41.03
2018-09-13T03:30:20.387Z,33.57
2018-09-13T03:32:48.708Z,35.70
2018-09-13T03:35:16.972Z,39.77
2018-09-13T03:37:45.318Z,35.83
2018-09-13T03:40:13.626Z,34.70
2018-09-13T03:42:41.947Z,37.50
2018-09-13T03:45:10.217Z,40.40
2018-09-13T03:47:38.508Z,39.33
2018-09-13T03:50:06.788Z,34.57
2018-09-13T03:52:35.042Z,34.07
2018-09-13T03:55:03.324Z,36.37
2018-09-13T03:57:31.599Z,39.30
2018-09-13T03:59:59.844Z,39.93
2018-09-13T04:02:28.104Z,42.20
2018-09-13T04:04:56.374Z,46.57
2018-09-13T04:07:24.640Z,47.23
2018-09-13T04:09:52.908Z,44.83
2018-09-13T04:12:21.554Z,45.80
2018-09-13T04:14:49.815Z,43.07
2018-09-13T04:17:18.196Z,46.07
2018-09-13T04:19:47.083Z,48.30
2018-09-13T04:22:16.167Z,42.10
2018-09-13T04:24:44.698Z,40.83
2018-09-13T04:27:13.370Z,46.57
2018-09-13T04:29:41.934Z,38.70
2018-09-13T04:32:10.209Z,42.40
2018-09-13T04:34:38.566Z,37.73
2018-09-13T04:37:06.931Z,47.53
2018-09-13T04:39:35.188Z,39.00
2018-09-13T04:42:03.503Z,41.27
2018-09-13T04:44:31.797Z,34.53
2018-09-13T04:47:00.070Z,35.33
2018-09-13T04:49:28.343Z,34.80
2018-09-13T04:51:56.608Z,33.97
2018-09-13T04:54:24.882Z,36.17
2018-09-13T04:56:53.159Z,33.13
2018-09-13T04:59:21.431Z,27.30
2018-09-13T05:01:49.672Z,25.67
2018-09-13T05:04:17.923Z,24.33
2018-09-13T05:06:46.250Z,21.17
2018-09-13T05:09:15.795Z,25.40
2018-09-13T05:11:44.060Z,20.40
2018-09-13T05:14:13.046Z,22.90
2018-09-13T05:16:41.343Z,20.47
2018-09-13T05:19:09.672Z,21.80
2018-09-13T05:21:38.070Z,29.77
2018-09-13T05:24:06.352Z,28.03
2018-09-13T05:26:34.632Z,27.83
2018-09-13T05:29:02.905Z,28.20
2018-09-13T05:31:31.205Z,28.30
2018-09-13T05:33:59.446Z,29.27
2018-09-13T05:36:27.710Z,25.30
2018-09-13T05:38:56.267Z,24.33
2018-09-13T05:41:25.381Z,26.57
2018-09-13T05:43:53.662Z,26.33
2018-09-13T05:46:22.081Z,27.43
2018-09-13T05:48:50.631Z,30.43
2018-09-13T05:51:19.258Z,28.17
2018-09-13T05:53:48.379Z,30.83
2018-09-13T05:56:16.710Z,29.67
2018-09-13T05:58:45.229Z,28.53
2018-09-13T06:01:14.737Z,28.27
2018-09-13T06:03:43.341Z,36.80
2018-09-13T06:06:11.920Z,30.20
2018-09-13T06:08:40.399Z,22.57
2018-09-13T06:11:08.861Z,28.33
2018-09-13T06:13:37.610Z,25.10
2018-09-13T06:16:05.916Z,26.03
2018-09-13T06:18:34.300Z,28.50
2018-09-13T06:21:02.624Z,23.13
2018-09-13T06:23:30.872Z,25.27
2018-09-13T06:25:59.155Z,29.90
2018-09-13T06:28:27.438Z,29.10
2018-09-13T06:30:55.703Z,27.70
2018-09-13T06:33:24.110Z,20.67
2018-09-13T06:35:52.382Z,26.03
2018-09-13T06:38:20.775Z,24.13
2018-09-13T06:40:48.914Z,22.30
2018-09-13T06:43:17.174Z,22.97
2018-09-13T06:45:45.410Z,19.67
2018-09-13T06:48:13.753Z,19.90
2018-09-13T06:50:42.045Z,26.40
2018-09-13T06:53:11.155Z,20.73
2018-09-13T06:55:39.406Z,25.00
2018-09-13T06:58:07.664Z,23.87
2018-09-13T07:00:35.961Z,19.37
2018-09-13T07:03:04.297Z,20.47
2018-09-13T07:05:32.577Z,20.30
2018-09-13T07:08:00.881Z,18.57
2018-09-13T07:10:29.255Z,23.50
2018-09-13T07:12:57.630Z,24.23
2018-09-13T07:15:25.914Z,26.70
2018-09-13T07:17:54.224Z,25.37
2018-09-13T07:20:22.489Z,21.40
2018-09-13T07:22:52.023Z,24.63
2018-09-13T07:25:22.291Z,24.63
2018-09-13T07:27:52.094Z,21.57
2018-09-13T07:30:22.534Z,23.67
2018-09-13T07:32:53.158Z,21.57
2018-09-13T07:35:22.625Z,21.67
2018-09-13T07:38:08.134Z,22.70
2018-09-13T07:40:38.355Z,23.60
2018-09-13T07:43:07.230Z,22.60
2018-09-13T07:45:35.547Z,21.77
2018-09-13T07:48:03.800Z,21.77
2018-09-13T07:50:32.046Z,22.93
2018-09-13T07:53:00.402Z,28.00
2018-09-13T07:55:28.639Z,29.40
2018-09-13T07:57:56.999Z,28.53
2018-09-13T08:00:25.241Z,33.27
2018-09-13T08:02:53.486Z,29.80
2018-09-13T08:05:21.762Z,32.90
2018-09-13T08:07:50.105Z,25.50
2018-09-13T08:10:18.495Z,28.80
2018-09-13T08:12:46.887Z,25.53
2018-09-13T08:15:15.146Z,29.97
2018-09-13T08:17:44.673Z,37.77
2018-09-13T08:20:14.172Z,30.17
2018-09-13T08:22:44.376Z,25.33
2018-09-13T08:25:16.917Z,26.13
2018-09-13T08:27:45.420Z,19.97
2018-09-13T08:30:14.050Z,19.80
2018-09-13T08:32:42.539Z,18.57
2018-09-13T08:35:11.023Z,21.50
2018-09-13T08:37:40.985Z,22.97
2018-09-13T08:40:12.083Z,16.60
2018-09-13T08:42:40.986Z,18.13
2018-09-13T08:45:10.132Z,17.20
2018-09-13T08:47:39.609Z,19.97
2018-09-13T08:50:09.979Z,22.73
2018-09-13T08:52:39.252Z,26.90
2018-09-13T08:58:22.207Z,20.60
2018-09-13T09:00:53.322Z,21.00
2018-09-13T09:03:23.272Z,20.13
2018-09-13T09:05:53.303Z,25.33
2018-09-13T09:08:24.839Z,29.57
2018-09-13T09:10:55.197Z,21.57
2018-09-13T09:13:33.899Z,21.57
2018-09-13T09:16:04.627Z,21.27
2018-09-13T09:18:37.350Z,29.07
2018-09-13T09:21:07.625Z,23.90
2018-09-13T09:23:39.675Z,24.37
2018-09-13T09:26:07.964Z,25.93
2018-09-13T09:28:38.316Z,23.20
2018-09-13T09:31:06.672Z,26.33
2018-09-13T09:33:34.964Z,21.50
2018-09-13T09:36:03.364Z,33.80
2018-09-13T09:38:32.364Z,22.20
2018-09-13T09:41:00.794Z,21.07
2018-09-13T09:43:29.383Z,23.23
2018-09-13T09:45:57.770Z,22.10
2018-09-13T09:48:43.393Z,20.13
2018-09-13T09:51:12.123Z,23.20
2018-09-13T09:53:40.567Z,20.47
2018-09-13T09:56:08.870Z,19.00
2018-09-13T09:58:37.409Z,23.03
2018-09-13T10:01:11.615Z,14.73
2018-09-13T10:03:40.191Z,18.40
2018-09-13T10:06:09.188Z,20.30
2018-09-13T10:08:37.914Z,16.27
2018-09-13T10:11:06.678Z,16.90
2018-09-13T10:13:35.033Z,18.63
2018-09-13T10:16:08.699Z,13.07
2018-09-13T10:18:44.727Z,14.50
2018-09-13T10:21:18.476Z,11.83
2018-09-13T10:23:52.172Z,11.03
2018-09-13T10:26:26.146Z,12.13
2018-09-13T10:29:00.007Z,8.63
2018-09-13T10:31:33.653Z,10.30
2018-09-13T10:34:07.376Z,11.33
2018-09-13T10:36:40.922Z,12.20
2018-09-13T10:39:14.674Z,7.70
2018-09-13T10:41:48.350Z,8.53
2018-09-13T10:44:21.911Z,9.50
2018-09-13T10:46:55.518Z,7.80
2018-09-13T10:49:29.037Z,9.00
2018-09-13T10:52:08.974Z,6.77
2018-09-13T10:54:39.531Z,9.70
2018-09-13T10:57:13.249Z,8.30
2018-09-13T10:59:41.678Z,8.43
2018-09-13T11:02:10.662Z,9.00
2018-09-13T11:04:39.047Z,7.90
2018-09-13T11:07:08.882Z,8.17
2018-09-13T11:09:37.212Z,7.97
2018-09-13T11:12:06.594Z,9.67
2018-09-13T11:14:38.235Z,8.87
2018-09-13T11:17:06.618Z,11.53
2018-09-13T11:19:34.995Z,8.37
2018-09-13T11:22:03.449Z,7.57
2018-09-13T11:24:31.863Z,9.57
2018-09-13T11:27:00.450Z,10.40
2018-09-13T11:29:28.835Z,10.73
2018-09-13T11:31:57.155Z,8.47
2018-09-13T11:34:25.496Z,10.33
2018-09-13T11:36:53.805Z,9.70
2018-09-13T11:39:22.222Z,9.97
2018-09-13T11:41:50.511Z,8.93
2018-09-13T11:44:18.805Z,13.57
2018-09-13T11:46:47.100Z,18.37
2018-09-13T11:49:15.431Z,17.73
2018-09-13T11:51:43.734Z,12.63
2018-09-13T11:54:11.979Z,13.33
2018-09-13T11:56:40.271Z,15.40
2018-09-13T11:59:08.527Z,13.77
2018-09-13T12:01:36.823Z,19.60
2018-09-13T12:04:05.099Z,19.57
2018-09-13T12:06:33.367Z,18.53
2018-09-13T12:09:01.707Z,20.00
2018-09-13T12:11:29.920Z,19.53
2018-09-13T12:13:58.145Z,18.90
2018-09-13T12:16:26.426Z,22.10
2018-09-13T12:18:54.651Z,18.13
2018-09-13T12:21:22.940Z,20.40
2018-09-13T12:23:51.255Z,20.13
2018-09-13T12:26:19.548Z,16.77
2018-09-13T12:28:47.819Z,15.47
2018-09-13T12:31:16.061Z,18.17
2018-09-13T12:33:44.341Z,20.47
2018-09-13T12:36:12.557Z,17.10
2018-09-13T12:38:40.823Z,16.83
2018-09-13T12:41:09.079Z,20.53
2018-09-13T12:43:37.343Z,19.83
2018-09-13T12:46:05.595Z,21.00
2018-09-13T12:48:33.856Z,22.97
2018-09-13T12:51:02.089Z,21.00
2018-09-13T12:53:30.342Z,27.47
2018-09-13T12:55:58.566Z,19.00
2018-09-13T12:58:27.143Z,19.40
2018-09-13T13:00:55.443Z,19.77
2018-09-13T13:03:23.714Z,21.00
2018-09-13T13:05:52.131Z,18.13
2018-09-13T13:08:20.420Z,23.90
2018-09-13T13:10:48.663Z,20.00
2018-09-13T13:13:16.984Z,18.00
2018-09-13T13:15:45.224Z,23.37
2018-09-13T13:18:13.462Z,20.80
2018-09-13T13:20:41.762Z,17.90
2018-09-13T13:23:10.008Z,17.27
2018-09-13T13:25:38.275Z,21.00
2018-09-13T13:28:06.545Z,19.80
2018-09-13T13:30:34.804Z,14.83
2018-09-13T13:33:03.107Z,15.03
2018-09-13T13:35:31.359Z,20.90
2018-09-13T13:37:59.643Z,16.97
2018-09-13T13:40:27.932Z,24.27
2018-09-13T13:42:56.152Z,17.70
2018-09-13T13:45:24.420Z,15.60
2018-09-13T13:47:52.663Z,18.07
2018-09-13T13:50:20.902Z,19.57
2018-09-13T13:52:49.157Z,22.60
2018-09-13T13:55:17.435Z,14.93
2018-09-13T13:57:45.708Z,15.80
2018-09-13T14:00:13.997Z,17.40
2018-09-13T14:02:42.250Z,19.03
2018-09-13T14:05:10.532Z,12.47
2018-09-13T14:07:38.789Z,18.33
2018-09-13T14:10:07.197Z,12.57
2018-09-13T14:12:35.323Z,16.50
2018-09-13T14:15:03.634Z,16.20
2018-09-13T14:17:31.879Z,19.03
2018-09-13T14:20:00.168Z,17.70
2018-09-13T14:22:28.498Z,15.90
2018-09-13T14:24:56.743Z,17.30
2018-09-13T14:27:25.007Z,15.47
2018-09-13T14:29:53.301Z,15.30
2018-09-13T14:32:21.507Z,15.30
2018-09-13T14:34:49.818Z,13.97
2018-09-13T14:37:18.106Z,15.80
2018-09-13T14:39:46.395Z,16.40
2018-09-13T14:42:14.643Z,15.10
2018-09-13T14:44:43.063Z,17.90
2018-09-13T14:47:11.364Z,21.00
2018-09-13T14:49:39.792Z,24.50
2018-09-13T14:52:08.735Z,15.67
2018-09-13T14:54:38.296Z,17.40
2018-09-13T14:57:10.992Z,17.07
2018-09-13T14:59:40.404Z,15.57
2018-09-13T15:02:09.223Z,17.43
2018-09-13T15:04:38.476Z,22.00
2018-09-13T15:07:09.167Z,18.30
2018-09-13T15:09:38.024Z,16.00
2018-09-13T15:12:06.311Z,14.30
2018-09-13T15:14:34.667Z,18.43
2018-09-13T15:17:03.622Z,17.43
2018-09-13T15:19:32.439Z,23.07
2018-09-13T15:22:01.578Z,14.57
2018-09-13T15:24:31.940Z,15.33
2018-09-13T15:27:00.235Z,13.43
2018-09-13T15:29:29.327Z,14.57
2018-09-13T15:31:59.014Z,12.13
2018-09-13T15:34:27.613Z,14.53
2018-09-13T15:36:56.171Z,13.23
2018-09-13T15:39:24.563Z,12.60
2018-09-13T15:41:54.833Z,17.23
2018-09-13T15:44:24.023Z,10.37
2018-09-13T15:46:52.590Z,12.83
2018-09-13T15:49:22.001Z,15.40
2018-09-13T15:51:50.622Z,17.03
2018-09-13T15:54:18.878Z,16.63
2018-09-13T15:56:48.183Z,17.73
2018-09-13T15:59:16.592Z,16.10
2018-09-13T16:01:45.042Z,15.00
2018-09-13T16:04:13.366Z,16.17
2018-09-13T16:06:41.992Z,19.03
2018-09-13T16:09:10.605Z,17.60
2018-09-13T16:11:39.044Z,15.33
2018-09-13T16:14:08.046Z,16.80
2018-09-13T16:16:37.102Z,14.60
2018-09-13T16:19:07.151Z,16.73
2018-09-13T16:21:36.030Z,13.80
2018-09-13T16:24:04.367Z,21.03
2018-09-13T16:26:32.909Z,14.60
2018-09-13T16:29:00.974Z,15.53
2018-09-13T16:31:29.320Z,14.10
2018-09-13T16:33:57.714Z,24.00
2018-09-13T16:36:28.337Z,13.00
2018-09-13T16:40:02.459Z,16.30
2018-09-13T16:42:42.873Z,13.77
2018-09-13T16:45:15.743Z,14.17
2018-09-13T16:47:51.343Z,13.23
2018-09-13T16:50:19.696Z,18.17
2018-09-13T16:52:48.101Z,15.60
2018-09-13T16:55:16.365Z,15.50
2018-09-13T16:57:44.634Z,14.03
2018-09-13T17:00:12.941Z,20.27
2018-09-13T17:02:41.258Z,17.67
2018-09-13T17:05:09.555Z,18.50
2018-09-13T17:07:37.884Z,18.23
2018-09-13T17:10:06.440Z,18.90
2018-09-13T17:12:34.859Z,21.73
2018-09-13T17:15:03.413Z,20.30
2018-09-13T17:17:31.705Z,17.53
2018-09-13T17:20:00.063Z,19.80
2018-09-13T17:22:28.408Z,24.40
2018-09-13T17:24:56.888Z,18.73
2018-09-13T17:27:25.168Z,30.37
2018-09-13T17:29:53.451Z,17.03
2018-09-13T17:32:21.736Z,22.07
2018-09-13T17:34:50.022Z,16.40
2018-09-13T17:37:18.247Z,17.17
2018-09-13T17:39:46.503Z,17.47
2018-09-13T17:42:14.788Z,24.93
2018-09-13T17:44:43.028Z,19.37
2018-09-13T17:47:11.250Z,15.73
2018-09-13T17:49:39.482Z,21.57
2018-09-13T17:52:07.937Z,19.57
2018-09-13T17:54:36.183Z,14.87
2018-09-13T17:57:04.647Z,16.87
2018-09-13T17:59:32.899Z,22.90
2018-09-13T18:02:01.187Z,16.93
2018-09-13T18:04:29.447Z,20.10
2018-09-13T18:06:57.770Z,23.20
2018-09-13T18:09:26.101Z,18.73
2018-09-13T18:11:54.316Z,18.20
2018-09-13T18:14:22.570Z,27.23
2018-09-13T18:16:50.834Z,14.50
2018-09-13T18:19:19.075Z,19.20
2018-09-13T18:21:47.342Z,22.43
2018-09-13T18:24:15.640Z,18.00
2018-09-13T18:26:43.898Z,21.00
2018-09-13T18:29:12.178Z,24.83
2018-09-13T18:31:40.457Z,19.53
2018-09-13T18:34:08.715Z,18.60
2018-09-13T18:36:36.979Z,22.60
2018-09-13T18:39:07.674Z,20.47
2018-09-13T18:41:35.928Z,21.53
2018-09-13T18:44:04.188Z,23.90
2018-09-13T18:46:32.442Z,19.40
2018-09-13T18:49:00.678Z,18.20
2018-09-13T18:51:28.925Z,21.67
2018-09-13T18:53:57.232Z,21.00
2018-09-13T18:56:25.455Z,18.80
2018-09-13T18:58:53.699Z,16.37
2018-09-13T19:01:21.963Z,19.00
2018-09-13T19:03:50.385Z,20.17
2018-09-13T19:06:18.727Z,20.23
2018-09-13T19:08:46.978Z,24.70
2018-09-13T19:11:15.312Z,21.83
2018-09-13T19:13:43.491Z,23.87
2018-09-13T19:16:11.848Z,22.70
2018-09-13T19:18:40.168Z,22.97
2018-09-13T19:21:08.450Z,22.60
2018-09-13T19:23:36.705Z,24.80
2018-09-13T19:26:05.034Z,25.37
2018-09-13T19:28:33.305Z,20.23
2018-09-13T19:31:01.567Z,21.80
2018-09-13T19:33:29.807Z,25.47
2018-09-13T19:35:58.096Z,23.40
2018-09-13T19:38:26.449Z,27.20
2018-09-13T19:40:54.778Z,20.97
2018-09-13T19:43:23.068Z,29.73
2018-09-13T19:45:51.447Z,22.53
2018-09-13T19:48:19.700Z,29.33
2018-09-13T19:50:47.982Z,22.20
2018-09-13T19:53:16.248Z,24.20
2018-09-13T19:55:44.523Z,23.67
2018-09-13T19:58:12.864Z,24.37
2018-09-13T20:00:41.145Z,28.70
2018-09-13T20:03:09.560Z,24.30
2018-09-13T20:05:37.699Z,25.83
2018-09-13T20:08:06.189Z,25.27
2018-09-13T20:10:34.471Z,26.93
2018-09-13T20:13:05.252Z,26.63
2018-09-13T20:15:33.495Z,28.27
2018-09-13T20:18:01.889Z,22.67
2018-09-13T20:20:30.118Z,23.73
2018-09-13T20:22:59.404Z,26.90
2018-09-13T20:25:27.609Z,30.40
2018-09-13T20:27:55.882Z,30.80
2018-09-13T20:30:24.133Z,28.33
2018-09-13T20:32:52.800Z,23.47
2018-09-13T20:35:22.098Z,26.90
2018-09-13T20:37:50.735Z,21.20
2018-09-13T20:40:19.037Z,30.83
2018-09-13T20:42:48.432Z,23.23
2018-09-13T20:45:16.644Z,31.93
2018-09-13T20:47:45.063Z,27.87
2018-09-13T20:50:13.352Z,28.73
2018-09-13T20:52:41.616Z,34.80
2018-09-13T20:55:09.959Z,27.47
2018-09-13T20:57:39.189Z,29.50
2018-09-13T21:00:07.477Z,27.73
2018-09-13T21:02:35.859Z,33.40
2018-09-13T21:05:04.234Z,27.73
2018-09-13T21:07:32.499Z,29.27
2018-09-13T21:10:03.383Z,27.60
2018-09-13T21:12:31.660Z,25.80
2018-09-13T21:14:59.986Z,25.83
2018-09-13T21:17:28.626Z,28.37
2018-09-13T21:19:57.123Z,32.03
2018-09-13T21:22:25.405Z,27.80
2018-09-13T21:24:53.960Z,30.83
2018-09-13T21:27:22.365Z,32.70
2018-09-13T21:29:50.679Z,31.10
2018-09-13T21:32:18.974Z,32.33
2018-09-13T21:34:47.219Z,32.40
2018-09-13T21:37:15.470Z,32.37
2018-09-13T21:39:43.796Z,29.60
2018-09-13T21:42:12.179Z,27.77
2018-09-13T21:44:40.427Z,28.00
2018-09-13T21:47:08.719Z,30.47
2018-09-13T21:49:36.954Z,28.60
2018-09-13T21:52:05.311Z,32.33
2018-09-13T21:54:33.612Z,28.67
2018-09-13T21:57:01.928Z,32.80
2018-09-13T21:59:30.197Z,29.90
2018-09-13T22:01:58.475Z,33.60
2018-09-13T22:04:26.711Z,33.40
2018-09-13T22:06:54.991Z,33.00
2018-09-13T22:09:23.239Z,32.00
2018-09-13T22:11:51.503Z,38.20
2018-09-13T22:14:19.827Z,33.57
2018-09-13T22:16:48.090Z,31.63
2018-09-13T22:19:16.346Z,39.87
2018-09-13T22:21:44.664Z,34.43
2018-09-13T22:24:12.902Z,30.17
2018-09-13T22:26:41.249Z,30.50
2018-09-13T22:29:09.585Z,29.47
2018-09-13T22:31:37.807Z,31.10
2018-09-13T22:34:07.528Z,37.47
2018-09-13T22:36:36.379Z,34.27
2018-09-13T22:39:07.728Z,32.97
2018-09-13T22:41:36.428Z,32.57
2018-09-13T22:44:04.705Z,28.50
2018-09-13T22:46:32.954Z,31.73
2018-09-13T22:49:01.233Z,40.20
2018-09-13T22:51:29.460Z,36.40
2018-09-13T22:53:57.736Z,34.10
2018-09-13T22:56:26.007Z,35.90
2018-09-13T22:58:54.285Z,30.33
2018-09-13T23:01:22.558Z,34.43
2018-09-13T23:03:50.799Z,36.47
2018-09-13T23:06:19.042Z,33.80
2018-09-13T23:08:47.321Z,29.97
2018-09-13T23:11:15.575Z,31.60
2018-09-13T23:13:43.880Z,27.60
2018-09-13T23:16:12.120Z,33.73
2018-09-13T23:18:40.369Z,34.03
2018-09-13T23:21:08.661Z,31.13
2018-09-13T23:23:36.945Z,35.77
2018-09-13T23:26:05.210Z,34.83
2018-09-13T23:28:33.457Z,34.37
2018-09-13T23:31:01.824Z,47.47
2018-09-13T23:33:30.097Z,36.70
2018-09-13T23:35:58.391Z,37.20
2018-09-13T23:38:26.652Z,39.03
2018-09-13T23:40:54.901Z,37.90
2018-09-13T23:43:23.243Z,36.77
2018-09-13T23:45:51.472Z,48.90
2018-09-13T23:48:19.731Z,44.23
2018-09-13T23:50:47.988Z,39.90
2018-09-13T23:53:16.261Z,43.53
2018-09-13T23:55:44.527Z,45.43
2018-09-13T23:58:12.763Z,46.30
